Time;durP1;ratioP1;P1;durP2;ratioP2;P2;SDS_P1;SDS_P2;PMS_P1;PMS_P2;Temp;Humidity;BMP_temperature;BMP_pressure;BME280_temperature;BME280_humidity;BME280_pressure;Samples;Min_cycle;Max_cycle;Signal;HPM_P1;HPM_P2
2022/09/03 00:01:21;;;;;;;3.42;1.83;;;;;;;20.62;45.39;93224.81;4836971;29;20042;-92
2022/09/03 00:03:57;;;;;;;2.30;1.88;;;;;;;20.62;45.75;93224.81;4838296;29;20045;-94
2022/09/03 00:06:25;;;;;;;3.97;2.53;;;;;;;20.63;45.59;93223.53;4821863;29;20045;-90
2022/09/03 00:09:14;;;;;;;2.90;2.08;;;;;;;20.63;45.75;93222.78;4836865;29;20048;-91
2022/09/03 00:11:49;;;;;;;3.00;2.00;;;;;;;20.62;45.49;93224.06;4853445;29;20041;-92
2022/09/03 00:14:20;;;;;;;3.78;1.88;;;;;;;20.61;45.60;93222.59;4854719;29;20069;-90
2022/09/03 00:16:49;;;;;;;3.45;1.98;;;;;;;20.63;45.78;93226.28;4854096;29;20042;-91
2022/09/03 00:19:21;;;;;;;3.05;1.90;;;;;;;20.63;45.72;93218.03;4823145;29;20046;-93
2022/09/03 00:21:57;;;;;;;2.92;2.30;;;;;;;20.61;45.94;93215.09;4857140;29;20098;-89
2022/09/03 00:24:27;;;;;;;2.42;1.67;;;;;;;20.63;45.67;93220.03;4852127;29;20044;-92
2022/09/03 00:26:54;;;;;;;2.78;2.00;;;;;;;20.62;45.68;93222.06;4856329;29;20499;-92
2022/09/03 00:29:36;;;;;;;2.70;1.65;;;;;;;20.59;45.83;93217.63;4839364;29;20088;-92
2022/09/03 00:32:06;;;;;;;2.97;1.60;;;;;;;20.63;45.47;93225.53;4856038;29;20097;-92
2022/09/03 00:34:40;;;;;;;2.47;2.00;;;;;;;20.62;45.72;93224.81;4851130;29;20113;-91
2022/09/03 00:37:06;;;;;;;2.33;2.00;;;;;;;20.63;45.77;93225.53;4822165;29;20049;-91
2022/09/03 00:39:32;;;;;;;2.40;1.80;;;;;;;20.63;45.81;93222.78;4835871;29;20041;-92
2022/09/03 00:42:22;;;;;;;2.58;1.90;;;;;;;20.61;45.88;93219.84;4824600;29;20046;-92
2022/09/03 00:45:09;;;;;;;2.13;1.90;;;;;;;20.61;45.59;93225.31;4853328;29;20503;-89
2022/09/03 00:47:53;;;;;;;3.58;1.77;;;;;;;20.62;45.50;93227.56;4858971;29;20281;-91
2022/09/03 00:50:43;;;;;;;2.33;1.70;;;;;;;20.61;45.56;93225.31;4861820;29;20050;-93
2022/09/03 00:53:18;;;;;;;2.37;1.77;;;;;;;20.63;45.63;93222.78;4856107;29;20042;-90
2022/09/03 00:56:00;;;;;;;2.03;1.60;;;;;;;20.61;45.76;93220.56;4855842;29;20044;-92
2022/09/03 00:59:07;;;;;;;2.17;1.70;;;;;;;20.60;45.58;93216.34;4854059;29;20037;-90
2022/09/03 01:01:48;;;;;;;2.63;1.70;;;;;;;20.61;45.97;93225.31;4864850;29;20042;-91
2022/09/03 01:04:32;;;;;;;2.00;1.70;;;;;;;20.60;45.80;93221.09;4852238;29;20073;-90
2022/09/03 01:07:06;;;;;;;2.72;1.63;;;;;;;20.59;45.93;93219.63;4852645;29;20070;-88
2022/09/03 01:09:39;;;;;;;2.03;1.70;;;;;;;20.59;45.57;93222.38;4848029;29;20030;-91
2022/09/03 01:12:26;;;;;;;2.67;1.80;;;;;;;20.59;45.88;93217.63;4869336;29;20496;-89
2022/09/03 01:14:52;;;;;;;2.65;1.67;;;;;;;20.57;45.98;93216.69;4855645;29;20052;-93
2022/09/03 01:17:29;;;;;;;2.40;1.58;;;;;;;20.60;45.78;93216.34;4863105;29;20433;-90
2022/09/03 01:20:22;;;;;;;3.47;1.80;;;;;;;20.58;45.84;93221.63;4837417;29;20059;-89
2022/09/03 01:23:08;;;;;;;1.77;1.35;;;;;;;20.59;45.90;93211.38;4825924;29;20081;-94
2022/09/03 01:25:39;;;;;;;2.30;1.60;;;;;;;20.60;45.64;93218.34;4855018;29;20051;-89
2022/09/03 01:28:09;;;;;;;;;;;;;;;20.62;45.52;93218.56;4871207;29;20045;-91
2022/09/03 01:30:37;;;;;;;3.00;1.80;;;;;;;20.58;46.29;93218.88;4857341;29;19927;-89
2022/09/03 01:33:18;;;;;;;1.33;1.23;;;;;;;20.57;46.00;93213.94;4843622;29;20441;-92
2022/09/03 01:36:02;;;;;;;2.80;1.35;;;;;;;20.57;45.86;93217.41;4873860;29;20042;-92
2022/09/03 01:38:52;;;;;;;2.03;1.50;;;;;;;20.57;45.98;93222.19;4842429;29;20037;-90
2022/09/03 01:44:22;;;;;;;2.05;1.52;;;;;;;20.56;45.99;93221.44;4871447;29;20104;-90
2022/09/03 01:46:51;;;;;;;3.35;1.70;;;;;;;20.57;45.56;93217.41;4858209;29;20126;-92
2022/09/03 01:49:21;;;;;;;1.52;1.20;;;;;;;20.56;45.78;93210.47;4857412;29;20033;-90
2022/09/03 01:51:51;;;;;;;2.63;1.60;;;;;;;20.57;45.98;93211.91;4857760;29;20045;-91
2022/09/03 01:54:23;;;;;;;2.13;1.40;;;;;;;20.57;45.55;93216.69;4858262;29;20041;-90
2022/09/03 01:57:13;;;;;;;1.80;1.23;;;;;;;20.57;45.81;93216.69;4858308;29;20045;-91
2022/09/03 01:59:50;;;;;;;1.87;1.40;;;;;;;20.58;45.64;93204.41;4854801;29;20121;-91
2022/09/03 02:02:20;;;;;;;1.63;1.40;;;;;;;20.58;45.83;93216.13;4837253;29;20084;-91
2022/09/03 02:05:05;;;;;;;2.05;1.45;;;;;;;20.57;46.02;93217.41;4839782;29;20481;-93
2022/09/03 02:07:34;;;;;;;2.25;1.35;;;;;;;20.58;45.86;93215.41;4854334;29;20497;-90
2022/09/03 02:10:01;;;;;;;2.65;1.50;;;;;;;20.58;45.77;93218.88;4829829;29;20398;-91
2022/09/03 02:12:28;;;;;;;2.00;1.50;;;;;;;20.57;45.77;93217.41;4856497;29;20041;-91
2022/09/03 02:14:54;;;;;;;1.40;1.13;;;;;;;20.56;46.00;93224.19;4858015;29;20038;-90
2022/09/03 02:17:19;;;;;;;2.22;1.50;;;;;;;20.58;45.93;93226.38;4850706;29;20030;-89
2022/09/03 02:19:45;;;;;;;1.63;1.20;;;;;;;20.57;45.93;93222.19;4824031;29;20038;-92
2022/09/03 02:22:11;;;;;;;1.52;1.20;;;;;;;20.57;45.92;93230.44;4825307;29;20038;-89
2022/09/03 02:24:36;;;;;;;1.23;1.00;;;;;;;20.57;45.58;93235.91;4842429;29;20049;-91
2022/09/03 02:27:02;;;;;;;1.65;1.17;;;;;;;20.57;45.77;93233.16;4858005;29;20042;-93
2022/09/03 02:29:27;;;;;;;1.92;1.40;;;;;;;20.57;46.00;93227.69;4856915;29;20044;-91
2022/09/03 02:31:52;;;;;;;1.77;1.33;;;;;;;20.57;45.85;93235.91;4857522;29;20041;-92
2022/09/03 02:34:18;;;;;;;3.30;1.15;;;;;;;20.58;45.73;93231.88;4842338;29;20037;-89
2022/09/03 02:36:45;;;;;;;2.38;1.48;;;;;;;20.57;45.67;93231.13;4858167;29;20409;-92
2022/09/03 02:39:12;;;;;;;1.38;1.25;;;;;;;20.56;45.77;93229.69;4823444;29;20049;-91
2022/09/03 02:41:37;;;;;;;2.42;1.30;;;;;;;20.56;45.94;93234.44;4852222;29;20097;-93
2022/09/03 02:44:18;;;;;;;1.35;1.20;;;;;;;20.56;45.92;93228.94;4856985;29;20037;-91
2022/09/03 02:46:49;;;;;;;2.78;1.70;;;;;;;20.57;46.04;93224.94;4857564;29;20050;-92
2022/09/03 02:49:15;;;;;;;1.30;1.20;;;;;;;20.55;45.76;93219.97;4820345;29;20027;-92
2022/09/03 02:51:42;;;;;;;2.97;1.85;;;;;;;20.56;45.88;93221.44;4834299;29;20046;-92
2022/09/03 02:54:08;;;;;;;1.80;1.13;;;;;;;20.56;46.28;93221.44;4872437;29;20511;-92
2022/09/03 02:56:34;;;;;;;1.20;1.10;;;;;;;20.57;45.68;93216.69;4857032;29;20038;-93
2022/09/03 02:59:00;;;;;;;1.30;1.20;;;;;;;20.58;45.89;93223.63;4856682;29;20484;-91
2022/09/03 03:01:26;;;;;;;1.83;1.23;;;;;;;20.56;45.93;93221.44;4838191;29;20049;-90
2022/09/03 03:03:51;;;;;;;1.88;1.50;;;;;;;20.55;46.01;93221.97;4838769;29;20041;-91
2022/09/03 03:06:19;;;;;;;2.15;1.30;;;;;;;20.55;46.18;93214.47;4823024;29;20048;-92
2022/09/03 03:08:45;;;;;;;2.15;1.40;;;;;;;20.56;45.96;93207.72;4823391;29;20033;-92
2022/09/03 03:11:11;;;;;;;3.30;1.40;;;;;;;20.57;46.10;93216.69;4830766;29;20648;-89
2022/09/03 03:13:36;;;;;;;2.55;1.33;;;;;;;20.55;45.68;93203.50;4838841;29;20046;-91
2022/09/03 03:16:05;;;;;;;1.40;1.30;;;;;;;20.55;45.83;93205.50;4823833;29;20042;-90
2022/09/03 03:18:30;;;;;;;1.83;1.30;;;;;;;20.56;45.62;93204.97;4808112;29;20046;-90
2022/09/03 03:20:56;;;;;;;2.35;1.42;;;;;;;20.55;45.94;93211.00;4837656;29;20030;-91
2022/09/03 03:23:21;;;;;;;1.73;1.38;;;;;;;20.56;45.80;93206.97;4839397;29;20518;-91
2022/09/03 03:25:47;;;;;;;3.03;1.40;;;;;;;20.55;45.73;93195.25;4841306;29;20042;-89
2022/09/03 03:28:12;;;;;;;3.20;1.60;;;;;;;20.56;45.59;93210.47;4856235;29;20079;-90
2022/09/03 03:30:38;;;;;;;1.27;0.93;;;;;;;20.57;45.66;93211.19;4856783;29;20052;-92
2022/09/03 03:33:06;;;;;;;1.95;1.10;;;;;;;20.55;46.18;93214.47;4856341;29;20030;-90
2022/09/03 03:35:31;;;;;;;3.15;1.25;;;;;;;20.55;45.70;93216.47;4871454;29;20045;-92
2022/09/03 03:37:58;;;;;;;2.65;1.60;;;;;;;20.55;46.01;93211.00;4856969;29;20573;-89
2022/09/03 03:40:24;;;;;;;2.75;1.30;;;;;;;20.53;45.82;93223.25;4855592;29;20045;-91
2022/09/03 03:42:50;;;;;;;1.67;1.10;;;;;;;20.54;45.68;93221.25;4856052;29;20056;-93
2022/09/03 03:45:16;;;;;;;1.75;1.20;;;;;;;20.56;46.00;93209.72;4856389;29;20389;-91
2022/09/03 03:47:41;;;;;;;1.65;1.10;;;;;;;20.53;46.20;93212.25;4852674;29;20113;-91
2022/09/03 03:50:07;;;;;;;1.40;1.10;;;;;;;20.53;45.53;93212.25;4856332;29;20041;-93
2022/09/03 03:52:32;;;;;;;1.35;1.15;;;;;;;20.53;46.00;93212.25;4839925;29;20072;-93
2022/09/03 03:54:58;;;;;;;2.03;1.30;;;;;;;20.55;45.95;93221.97;4871885;29;20040;-89
2022/09/03 03:57:23;;;;;;;2.08;1.20;;;;;;;20.52;46.64;93205.28;4855758;29;20045;-91
2022/09/03 03:59:49;;;;;;;1.48;1.23;;;;;;;20.53;45.71;93214.25;4851868;29;20037;-90
2022/09/03 04:02:14;;;;;;;2.10;1.25;;;;;;;20.55;46.02;93221.97;4837067;29;20042;-89
2022/09/03 04:04:40;;;;;;;1.80;1.08;;;;;;;20.52;46.02;93213.53;4853759;29;20069;-93
2022/09/03 04:07:06;;;;;;;1.50;1.10;;;;;;;20.53;45.83;93217.75;4838001;29;20057;-93
2022/09/03 04:09:31;;;;;;;1.63;1.25;;;;;;;20.53;45.75;93219.75;4837482;29;20049;-92
2022/09/03 04:11:57;;;;;;;1.95;1.30;;;;;;;20.53;46.02;93223.25;4842626;29;20515;-91
2022/09/03 04:14:23;;;;;;;1.55;1.10;;;;;;;20.55;45.87;93221.97;4852258;29;20050;-91
2022/09/03 04:16:49;;;;;;;1.73;1.00;;;;;;;20.53;46.21;93222.50;4835651;29;20033;-88
2022/09/03 04:19:15;;;;;;;1.20;1.10;;;;;;;20.55;46.13;93233.69;4803794;29;20038;-90
2022/09/03 04:21:40;;;;;;;2.33;1.35;;;;;;;20.53;45.93;93234.22;4808610;29;20508;-91
2022/09/03 04:24:06;;;;;;;2.65;1.45;;;;;;;20.52;46.24;93234.75;4851285;29;20029;-91
2022/09/03 04:26:32;;;;;;;1.67;1.20;;;;;;;20.51;46.20;93223.03;4855842;29;20067;-90
2022/09/03 04:29:00;;;;;;;1.60;1.25;;;;;;;20.51;46.04;93225.78;4847284;29;20038;-89
2022/09/03 04:31:26;;;;;;;1.63;1.00;;;;;;;20.53;45.50;93220.50;4855003;29;20189;-91
2022/09/03 04:33:51;;;;;;;1.67;1.30;;;;;;;20.52;45.88;93226.50;4855843;29;20093;-88
2022/09/03 04:36:21;;;;;;;1.50;1.40;;;;;;;20.52;45.89;93221.03;4849145;29;20034;-92
2022/09/03 04:38:48;;;;;;;1.75;1.20;;;;;;;20.52;45.96;93230.00;4852904;29;20038;-89
2022/09/03 04:41:15;;;;;;;1.70;1.20;;;;;;;20.55;46.00;93224.72;4848070;29;20510;-91
2022/09/03 04:43:43;;;;;;;1.10;1.00;;;;;;;20.52;46.01;93223.78;4837525;29;20038;-91
2022/09/03 04:46:10;;;;;;;2.13;1.20;;;;;;;20.52;46.32;93232.00;4836634;29;20042;-90
2022/09/03 04:48:35;;;;;;;2.50;1.25;;;;;;;20.52;46.51;93235.50;4837375;29;20049;-90
2022/09/03 04:51:08;;;;;;;1.85;1.25;;;;;;;20.53;45.98;93247.22;4837163;29;20042;-90
2022/09/03 04:53:34;;;;;;;1.23;1.10;;;;;;;20.53;46.24;93241.72;4844636;29;20094;-92
2022/09/03 04:55:59;;;;;;;2.25;1.30;;;;;;;20.55;45.85;93246.69;4871785;29;20037;-89
2022/09/03 04:58:25;;;;;;;1.50;1.00;;;;;;;20.56;45.61;93243.41;4854809;29;20037;-92
2022/09/03 05:00:51;;;;;;;1.33;1.02;;;;;;;20.56;45.85;93246.16;4854611;29;20463;-90
2022/09/03 05:03:17;;;;;;;1.75;1.00;;;;;;;20.56;46.12;93245.41;4844180;29;20125;-92
2022/09/03 05:05:51;;;;;;;1.20;0.90;;;;;;;20.56;46.07;93237.94;4854931;29;20041;-92
2022/09/03 05:08:16;;;;;;;2.45;1.20;;;;;;;20.61;45.82;93241.81;4824774;29;20061;-90
2022/09/03 05:10:42;;;;;;;1.60;1.20;;;;;;;20.60;45.92;93243.81;4844204;29;20045;-91
2022/09/03 05:13:07;;;;;;;1.00;0.90;;;;;;;20.62;46.00;93243.28;4815074;29;20038;-91
2022/09/03 05:15:32;;;;;;;2.05;1.30;;;;;;;20.65;45.83;93234.00;4810011;29;20042;-91
2022/09/03 05:17:58;;;;;;;2.13;1.60;;;;;;;20.65;45.94;93236.75;4846032;29;20628;-92
2022/09/03 05:20:25;;;;;;;1.27;1.00;;;;;;;20.65;45.94;93242.97;4823621;29;20112;-89
2022/09/03 05:22:51;;;;;;;1.70;1.10;;;;;;;20.65;46.01;93242.97;4835341;29;20103;-92
2022/09/03 05:25:16;;;;;;;2.63;1.30;;;;;;;20.66;46.13;93247.19;4814547;29;20109;-91
2022/09/03 05:27:42;;;;;;;1.42;1.00;;;;;;;20.67;45.86;93242.44;4815163;29;20102;-91
2022/09/03 05:30:08;;;;;;;3.50;1.50;;;;;;;20.67;45.69;93240.44;4841866;29;20042;-90
2022/09/03 05:32:33;;;;;;;1.60;1.00;;;;;;;20.69;46.11;93240.66;4842506;29;20421;-91
2022/09/03 05:34:59;;;;;;;1.80;1.20;;;;;;;20.68;45.88;93249.41;4827179;29;20064;-90
2022/09/03 05:37:24;;;;;;;2.45;1.20;;;;;;;20.69;45.91;93243.41;4841050;29;20721;-90
2022/09/03 05:39:49;;;;;;;1.23;0.80;;;;;;;20.67;45.87;93237.69;4841802;29;20042;-91
2022/09/03 05:42:15;;;;;;;1.38;0.90;;;;;;;20.72;45.77;93238.84;4850792;29;20100;-89
2022/09/03 05:44:40;;;;;;;1.90;1.13;;;;;;;20.70;45.83;93242.13;4839850;29;20382;-92
2022/09/03 05:47:06;;;;;;;0.70;0.70;;;;;;;20.71;46.03;93234.63;4839995;29;20454;-91
2022/09/03 05:49:31;;;;;;;1.25;1.00;;;;;;;20.71;46.11;93237.38;4839585;29;20516;-94
2022/09/03 05:51:57;;;;;;;2.03;0.90;;;;;;;20.72;45.97;93236.84;4824905;29;20046;-92
2022/09/03 05:54:22;;;;;;;0.70;0.70;;;;;;;20.75;45.70;93240.53;4846034;29;20416;-91
2022/09/03 05:56:48;;;;;;;1.50;1.20;;;;;;;20.72;45.95;93239.59;4858129;29;20045;-88
2022/09/03 05:59:15;;;;;;;1.63;1.10;;;;;;;20.74;45.92;93231.56;4873525;29;20037;-92
2022/09/03 06:01:42;;;;;;;1.83;0.90;;;;;;;20.75;46.00;93237.81;4844634;29;20049;-91
2022/09/03 06:04:09;;;;;;;1.00;0.90;;;;;;;20.77;45.95;93240.75;4823421;29;20049;-92
2022/09/03 06:06:36;;;;;;;1.38;1.10;;;;;;;20.77;45.99;93240.75;4839859;29;20050;-92
2022/09/03 06:09:03;;;;;;;0.95;0.80;;;;;;;20.77;46.02;93240.75;4839842;29;20186;-91
2022/09/03 06:11:29;;;;;;;1.02;0.93;;;;;;;20.80;46.03;93236.94;4834471;29;20125;-92
2022/09/03 06:14:00;;;;;;;2.88;1.00;;;;;;;20.81;45.88;93244.63;4838447;29;20120;-90
2022/09/03 06:16:25;;;;;;;1.13;0.82;;;;;;;20.82;45.89;93242.63;4856776;29;20076;-92
2022/09/03 06:18:51;;;;;;;0.80;0.80;;;;;;;20.82;46.02;93246.13;4840817;29;20038;-93
2022/09/03 06:21:16;;;;;;;1.55;1.17;;;;;;;20.84;46.10;93240.84;4857367;29;20532;-92
2022/09/03 06:23:42;;;;;;;1.30;1.00;;;;;;;20.83;46.17;93236.59;4840979;29;20037;-92
2022/09/03 06:26:11;;;;;;;0.98;0.82;;;;;;;20.84;45.90;93229.84;4838241;29;20037;-93
2022/09/03 06:28:39;;;;;;;1.35;1.02;;;;;;;20.86;45.94;93232.81;4831684;29;20732;-90
2022/09/03 06:31:06;;;;;;;1.23;0.65;;;;;;;20.85;46.07;93225.81;4857711;29;20042;-91
2022/09/03 06:33:33;;;;;;;1.17;0.82;;;;;;;20.86;45.81;93229.31;4857652;29;20037;-90
2022/09/03 06:35:59;;;;;;;1.10;0.80;;;;;;;20.88;46.06;93227.53;4857423;29;20034;-88
2022/09/03 06:38:26;;;;;;;1.25;0.80;;;;;;;20.90;46.05;93220.75;4855511;29;20042;-91
2022/09/03 06:40:53;;;;;;;1.20;0.98;;;;;;;20.90;45.91;93229.00;4847800;29;20037;-90
2022/09/03 06:43:19;;;;;;;1.50;1.00;;;;;;;20.90;45.82;93232.47;4852161;29;20042;-91
2022/09/03 06:45:53;;;;;;;1.10;1.00;;;;;;;20.91;46.06;93230.47;4838982;29;20046;-92
2022/09/03 06:48:19;;;;;;;0.85;0.80;;;;;;;20.91;45.86;93222.97;4838656;29;20485;-92
2022/09/03 06:50:53;;;;;;;1.85;1.00;;;;;;;20.93;45.99;93236.91;4872501;29;20034;-90
2022/09/03 06:53:18;;;;;;;0.90;0.70;;;;;;;20.95;46.03;93244.63;4856754;29;20037;-91
2022/09/03 06:55:52;;;;;;;1.60;1.05;;;;;;;20.93;45.73;93239.66;4856754;29;20052;-93
2022/09/03 06:58:17;;;;;;;1.13;0.90;;;;;;;20.95;45.92;93242.63;4841543;29;20041;-89
2022/09/03 07:00:43;;;;;;;0.70;0.60;;;;;;;20.96;45.87;93243.38;4857146;29;20068;-91
2022/09/03 07:03:10;;;;;;;1.17;0.90;;;;;;;20.96;45.94;93241.34;4851307;29;20448;-93
2022/09/03 07:05:36;;;;;;;1.05;0.80;;;;;;;20.97;45.94;93236.59;4853797;29;20130;-91
2022/09/03 07:08:01;;;;;;;0.95;0.75;;;;;;;20.97;46.13;93237.34;4838649;29;20046;-92
2022/09/03 07:10:27;;;;;;;1.15;0.93;;;;;;;20.99;45.93;93236.81;4841051;29;20504;-92
2022/09/03 07:12:54;;;;;;;0.93;0.82;;;;;;;21.01;45.81;93231.50;4854571;29;20033;-90
2022/09/03 07:15:20;;;;;;;1.13;0.90;;;;;;;21.00;46.03;93233.50;4837481;29;20053;-93
2022/09/03 07:17:45;;;;;;;1.10;0.77;;;;;;;21.02;45.79;93232.97;4838527;29;20035;-90
2022/09/03 07:20:11;;;;;;;1.27;0.70;;;;;;;21.03;46.18;93235.19;4822976;29;20409;-88
2022/09/03 07:22:36;;;;;;;1.00;0.80;;;;;;;21.03;45.64;93235.19;4822930;29;20402;-91
2022/09/03 07:25:03;;;;;;;1.20;1.08;;;;;;;21.04;46.02;93236.66;4837923;29;20042;-89
2022/09/03 07:27:29;;;;;;;0.93;0.82;;;;;;;21.04;45.83;93238.69;4807216;29;20125;-93
2022/09/03 07:29:54;;;;;;;1.65;0.82;;;;;;;21.05;45.70;93242.91;4823224;29;20053;-91
2022/09/03 07:32:20;;;;;;;1.38;0.90;;;;;;;21.05;45.88;93249.16;4822704;29;20045;-91
2022/09/03 07:34:45;;;;;;;1.30;0.80;;;;;;;21.06;45.84;93247.88;4851441;29;20535;-91
2022/09/03 07:37:11;;;;;;;0.70;0.68;;;;;;;21.09;45.97;93246.06;4840321;29;20033;-93
2022/09/03 07:39:36;;;;;;;1.48;1.17;;;;;;;21.07;45.90;93240.38;4856829;29;20045;-90
2022/09/03 07:42:02;;;;;;;1.13;0.75;;;;;;;21.10;46.14;93253.78;4856032;29;20049;-91
2022/09/03 07:44:28;;;;;;;1.27;1.00;;;;;;;21.11;46.13;93257.28;4844980;29;20038;-91
2022/09/03 07:46:54;;;;;;;1.38;1.00;;;;;;;21.10;45.75;93253.78;4834902;29;20040;-91
2022/09/03 07:49:20;;;;;;;1.52;0.90;;;;;;;21.11;46.19;93263.50;4822009;29;20164;-92
2022/09/03 07:51:49;;;;;;;1.00;0.90;;;;;;;21.12;45.82;93272.50;4838162;29;20173;-89
2022/09/03 07:54:14;;;;;;;1.77;0.85;;;;;;;21.12;45.85;93265.00;4822660;29;20084;-91
2022/09/03 07:56:40;;;;;;;0.98;0.70;;;;;;;21.12;45.81;93258.75;4837763;29;20492;-92
2022/09/03 07:59:05;;;;;;;1.00;0.85;;;;;;;21.13;45.78;93262.97;4842164;29;20052;-91
2022/09/03 08:01:31;;;;;;;1.00;0.73;;;;;;;21.14;45.80;93256.97;4835456;29;20042;-92
2022/09/03 08:03:57;;;;;;;1.15;0.70;;;;;;;21.15;45.77;93255.69;4852910;29;20498;-91
2022/09/03 08:06:24;;;;;;;1.02;1.00;;;;;;;21.14;45.81;93254.22;4837485;29;20045;-90
2022/09/03 08:08:58;;;;;;;1.40;0.95;;;;;;;21.15;46.15;93249.44;4822458;29;20061;-93
2022/09/03 08:11:24;;;;;;;1.35;0.90;;;;;;;21.16;46.04;93257.16;4847098;29;20128;-88
2022/09/03 08:13:56;;;;;;;0.90;0.80;;;;;;;21.15;45.91;93252.94;4848779;29;20038;-94
2022/09/03 08:16:21;;;;;;;1.10;1.00;;;;;;;21.15;46.03;93261.19;4852434;29;20042;-92
2022/09/03 08:18:50;;;;;;;0.70;0.70;;;;;;;21.15;46.11;93268.69;4822608;29;20119;-94
2022/09/03 08:21:17;;;;;;;1.13;0.75;;;;;;;21.15;46.00;93268.69;4822479;29;20026;-91
2022/09/03 08:23:45;;;;;;;1.15;0.88;;;;;;;21.15;45.90;93265.94;4834870;29;20080;-91
2022/09/03 08:26:12;;;;;;;1.10;1.00;;;;;;;21.14;46.05;93262.44;4845034;29;20057;-91
2022/09/03 08:28:37;;;;;;;1.88;1.00;;;;;;;21.15;45.97;93252.94;4837275;29;20104;-93
2022/09/03 08:31:10;;;;;;;0.93;0.88;;;;;;;21.17;45.60;93266.88;4835468;29;20574;-90
2022/09/03 08:33:37;;;;;;;0.88;0.80;;;;;;;21.18;45.98;93267.63;4854867;29;20082;-92
2022/09/03 08:36:11;;;;;;;0.88;0.88;;;;;;;21.19;46.09;93271.84;4838384;29;20091;-88
2022/09/03 08:38:37;;;;;;;1.27;1.00;;;;;;;21.22;46.05;93273.53;4826789;29;20664;-90
2022/09/03 08:41:05;;;;;;;0.93;0.80;;;;;;;21.20;45.96;93276.13;4819067;29;20045;-88
2022/09/03 08:43:31;;;;;;;1.27;0.90;;;;;;;21.22;45.99;93275.59;4842726;29;20136;-88
2022/09/03 08:45:58;;;;;;;1.10;0.95;;;;;;;21.23;45.83;93277.03;4842916;29;20037;-91
2022/09/03 08:48:24;;;;;;;1.40;1.13;;;;;;;21.22;45.84;93270.81;4842402;29;20049;-92
2022/09/03 08:50:54;;;;;;;1.05;0.95;;;;;;;21.22;46.11;93270.09;4845354;29;20038;-93
2022/09/03 08:53:43;;;;;;;0.93;0.82;;;;;;;21.20;46.15;93270.63;4823447;29;20719;-89
2022/09/03 08:56:13;;;;;;;2.85;1.08;;;;;;;21.20;46.05;93260.34;4845676;29;20120;-89
2022/09/03 08:58:42;;;;;;;1.10;0.90;;;;;;;21.20;46.22;93267.88;4843275;29;20037;-89
2022/09/03 09:01:08;;;;;;;0.93;0.77;;;;;;;21.18;46.13;93267.63;4827765;29;20038;-90
2022/09/03 09:03:49;;;;;;;1.10;0.90;;;;;;;21.19;46.03;93272.59;4855582;29;20050;-94
2022/09/03 09:06:48;;;;;;;1.20;1.10;;;;;;;21.17;46.26;93271.66;4824731;29;20098;-91
2022/09/03 09:09:24;;;;;;;1.75;1.20;;;;;;;21.20;46.14;93270.63;4841522;29;20050;-89
2022/09/03 09:12:15;;;;;;;0.90;0.90;;;;;;;21.19;46.25;93269.09;4854029;29;20058;-92
2022/09/03 09:15:14;;;;;;;1.40;0.70;;;;;;;21.16;46.22;93270.91;4862785;29;20107;-92
2022/09/03 09:17:39;;;;;;;1.38;1.20;;;;;;;21.21;46.19;93263.84;4849557;29;20384;-90
2022/09/03 09:20:25;;;;;;;1.10;1.00;;;;;;;21.20;46.09;93274.09;4856165;29;20071;-90
2022/09/03 09:22:57;;;;;;;0.82;0.73;;;;;;;21.20;46.21;93268.59;4838447;29;20034;-92
2022/09/03 09:25:25;;;;;;;1.50;1.20;;;;;;;21.22;46.40;93261.84;4825026;29;20508;-90
2022/09/03 09:27:51;;;;;;;1.75;0.90;;;;;;;21.21;46.28;93252.84;4859035;29;20036;-90
2022/09/03 09:30:19;;;;;;;1.40;1.00;;;;;;;21.22;46.20;93257.06;4858258;29;20045;-93
2022/09/03 09:32:46;;;;;;;1.70;1.10;;;;;;;21.23;46.10;93258.53;4846964;29;20042;-91
2022/09/03 09:35:11;;;;;;;1.10;1.00;;;;;;;21.22;46.44;93259.81;4839369;29;20030;-92
2022/09/03 09:37:51;;;;;;;1.70;1.00;;;;;;;21.20;46.18;93268.59;4839486;29;20041;-91
2022/09/03 09:40:26;;;;;;;1.00;0.93;;;;;;;21.20;46.22;93263.09;4844794;29;20369;-92
2022/09/03 09:43:02;;;;;;;1.20;0.95;;;;;;;21.20;46.48;93270.63;4840244;29;20046;-93
2022/09/03 09:45:28;;;;;;;1.45;1.02;;;;;;;21.21;46.25;93269.34;4840046;29;20069;-94
2022/09/03 09:47:54;;;;;;;0.98;0.85;;;;;;;21.20;46.03;93271.34;4840048;29;20100;-93
2022/09/03 09:50:21;;;;;;;1.13;0.90;;;;;;;21.21;46.41;93280.34;4844880;29;20076;-90
2022/09/03 09:52:46;;;;;;;1.25;1.00;;;;;;;21.22;46.46;93276.28;4858758;29;20047;-90
2022/09/03 09:55:19;;;;;;;2.22;1.02;;;;;;;21.22;46.52;93270.09;4819850;29;20050;-93
2022/09/03 09:57:45;;;;;;;1.65;1.00;;;;;;;21.23;46.57;93275.03;4792473;29;20210;-93
2022/09/03 10:00:12;;;;;;;1.33;1.23;;;;;;;21.22;46.65;93281.09;4822746;29;20468;-89
2022/09/03 10:02:53;;;;;;;1.98;1.42;;;;;;;21.22;46.55;93283.84;4825050;29;20105;-93
2022/09/03 10:05:25;;;;;;;1.30;1.20;;;;;;;21.23;46.39;93280.53;4820247;29;20038;-92
2022/09/03 10:08:17;;;;;;;1.20;0.98;;;;;;;21.22;46.45;93270.81;4793142;29;20046;-91
2022/09/03 10:10:47;;;;;;;2.15;1.33;;;;;;;21.24;46.45;93273.00;4809741;29;20053;-90
2022/09/03 10:13:14;;;;;;;1.25;1.02;;;;;;;;;;4793334;29;20046;-91
2022/09/03 10:15:46;;;;;;;1.40;1.20;;;;;;;21.23;46.45;93264.03;4804698;29;20051;-90
2022/09/03 10:18:29;;;;;;;1.45;1.10;;;;;;;21.22;46.72;93279.03;4831020;29;20084;-89
2022/09/03 10:21:10;;;;;;;1.20;1.10;;;;;;;21.19;46.64;93267.09;4838230;29;20117;-92
2022/09/03 10:24:14;;;;;;;1.63;1.13;;;;;;;21.21;46.68;93277.59;4848576;29;20098;-92
2022/09/03 10:26:40;;;;;;;1.48;1.15;;;;;;;21.22;46.39;93281.09;4839660;29;20144;-88
2022/09/03 10:29:06;;;;;;;2.25;1.10;;;;;;;21.24;46.58;93281.25;4838349;29;20045;-95
2022/09/03 10:31:44;;;;;;;1.50;1.13;;;;;;;21.20;46.82;93276.84;4839600;29;20042;-89
2022/09/03 10:34:13;;;;;;;1.45;1.00;;;;;;;21.22;46.72;93276.28;4838985;29;20304;-92
2022/09/03 10:37:00;;;;;;;2.08;1.13;;;;;;;21.19;46.59;93286.34;4839892;29;20488;-88
2022/09/03 10:39:48;;;;;;;1.20;1.10;;;;;;;21.21;46.76;93283.09;4850943;29;20064;-93
2022/09/03 10:42:28;;;;;;;1.52;1.20;;;;;;;21.24;46.63;93281.25;4835593;29;20038;-91
2022/09/03 10:45:03;;;;;;;1.20;1.10;;;;;;;21.23;46.76;93286.03;4836088;29;20057;-91
2022/09/03 10:47:50;;;;;;;1.25;1.15;;;;;;;21.23;46.52;93279.78;4826762;29;20042;-91
2022/09/03 10:50:25;;;;;;;1.58;1.20;;;;;;;21.23;46.82;93294.28;4841865;29;20042;-89
2022/09/03 10:52:59;;;;;;;0.98;0.98;;;;;;;21.24;46.68;93284.00;4857887;29;20064;-92
2022/09/03 10:55:46;;;;;;;1.55;1.05;;;;;;;21.22;46.63;93294.81;4872159;29;20042;-92
2022/09/03 10:58:20;;;;;;;1.60;1.30;;;;;;;21.26;46.69;93295.97;4871658;29;20540;-90
2022/09/03 11:00:54;;;;;;;1.23;1.13;;;;;;;21.22;46.70;93290.03;4858245;29;20081;-91
2022/09/03 11:03:28;;;;;;;1.35;1.08;;;;;;;21.24;46.57;93297.75;4871003;29;20058;-94
2022/09/03 11:05:56;;;;;;;1.67;1.40;;;;;;;;;;4840061;29;20038;-92
2022/09/03 11:08:30;;;;;;;1.10;1.00;;;;;;;21.24;46.50;93278.50;4837816;29;20129;-92
2022/09/03 11:11:04;;;;;;;1.63;1.30;;;;;;;21.25;46.92;93285.50;4845161;29;20033;-92
2022/09/03 11:13:34;;;;;;;1.35;1.00;;;;;;;21.24;46.61;93293.00;4841497;29;20512;-93
2022/09/03 11:16:01;;;;;;;1.83;1.30;;;;;;;;;;4856115;29;20392;-90
2022/09/03 11:18:34;;;;;;;1.50;1.20;;;;;;;21.26;46.74;93281.47;4841222;29;20042;-92
2022/09/03 11:21:02;;;;;;;3.85;1.05;;;;;;;21.24;46.83;93293.00;4824277;29;20070;-92
2022/09/03 11:23:28;;;;;;;1.13;0.95;;;;;;;21.26;46.78;93284.97;4838170;29;20049;-87
2022/09/03 11:25:56;;;;;;;1.13;1.02;;;;;;;21.26;46.89;93284.22;4838241;29;20067;-91
2022/09/03 11:28:55;;;;;;;1.17;1.08;;;;;;;21.23;46.84;93282.53;4854260;29;20555;-92
2022/09/03 11:31:34;;;;;;;1.10;1.00;;;;;;;21.23;46.95;93277.78;4855517;29;20076;-91
2022/09/03 11:34:12;;;;;;;1.20;1.10;;;;;;;21.25;46.91;93280.00;4862234;29;20149;-94
2022/09/03 11:36:38;;;;;;;1.67;1.10;;;;;;;21.26;47.12;93273.22;4823076;29;20125;-92
2022/09/03 11:39:22;;;;;;;1.30;1.17;;;;;;;21.23;47.05;93280.53;4859195;29;20066;-93
2022/09/03 11:41:58;;;;;;;1.17;1.00;;;;;;;21.25;47.01;93285.50;4850292;29;20085;-90
2022/09/03 11:44:24;;;;;;;1.17;1.08;;;;;;;21.26;47.16;93284.22;4838100;29;20033;-89
2022/09/03 11:46:56;;;;;;;1.38;1.08;;;;;;;21.26;47.10;93286.97;4824463;29;20048;-93
2022/09/03 11:49:29;;;;;;;1.27;1.05;;;;;;;21.26;46.97;93292.47;4823356;29;20054;-92
2022/09/03 11:51:59;;;;;;;0.85;0.85;;;;;;;21.25;47.15;93280.00;4826686;29;20178;-92
2022/09/03 11:54:25;;;;;;;;;;;;;;;21.22;47.12;93279.03;4822018;29;20041;-93